Time;durP1;ratioP1;P1;durP2;ratioP2;P2;SDS_P1;SDS_P2;PMS_P1;PMS_P2;Temp;Humidity;BMP_temperature;BMP_pressure;BME280_temperature;BME280_humidity;BME280_pressure;Samples;Min_cycle;Max_cycle;Signal;HPM_P1;HPM_P2
2022/12/18 00:00:51;;;;;;;30.42;16.98;;;-4.40;1.00;;;;;;4961127;28;20184;-84
2022/12/18 00:03:17;;;;;;;28.73;15.77;;;-4.50;1.00;;;;;;4970453;28;20657;-86
2022/12/18 00:05:47;;;;;;;31.53;15.60;;;-4.50;1.00;;;;;;4963337;28;20180;-87
2022/12/18 00:08:15;;;;;;;26.45;15.57;;;-4.50;1.00;;;;;;4979923;28;20207;-87
2022/12/18 00:10:44;;;;;;;29.92;15.82;;;-4.50;1.00;;;;;;4967950;28;20196;-85
2022/12/18 00:13:10;;;;;;;25.30;14.57;;;-4.50;1.00;;;;;;4959854;28;20663;-86
2022/12/18 00:15:37;;;;;;;31.35;15.88;;;-4.50;1.00;;;;;;4977005;28;20580;-85
2022/12/18 00:18:03;;;;;;;30.02;17.52;;;-4.50;1.00;;;;;;4958937;28;21239;-86
2022/12/18 00:20:28;;;;;;;28.87;15.43;;;-4.50;1.00;;;;;;4978438;28;20196;-86
2022/12/18 00:22:56;;;;;;;33.50;16.87;;;-4.40;1.00;;;;;;4965927;28;20263;-86
2022/12/18 00:25:22;;;;;;;27.15;14.05;;;-4.50;99.90;;;;;;4959271;28;20244;-88
2022/12/18 00:27:48;;;;;;;26.70;13.70;;;-4.50;99.90;;;;;;4982554;28;20209;-87
2022/12/18 00:30:14;;;;;;;29.20;15.00;;;-4.60;99.90;;;;;;4963150;28;20507;-87
2022/12/18 00:32:39;;;;;;;33.13;17.80;;;-4.60;99.90;;;;;;4982290;28;20251;-86
2022/12/18 00:35:06;;;;;;;29.70;15.77;;;-4.60;1.00;;;;;;4983056;28;20421;-86
2022/12/18 00:37:33;;;;;;;29.65;16.67;;;-4.60;1.00;;;;;;4965666;28;20222;-86
2022/12/18 00:39:59;;;;;;;28.55;13.55;;;-4.70;1.00;;;;;;4977521;28;20191;-86
2022/12/18 00:45:13;;;;;;;28.50;14.75;;;-4.70;40.90;;;;;;4983753;28;20183;-88
2022/12/18 00:47:40;;;;;;;27.37;15.20;;;-4.70;94.40;;;;;;4964976;28;21168;-88
2022/12/18 00:50:06;;;;;;;30.35;16.45;;;-4.70;99.90;;;;;;4982773;28;20253;-87
2022/12/18 00:52:32;;;;;;;25.08;13.82;;;-4.70;99.90;;;;;;4958609;28;20184;-86
2022/12/18 00:54:57;;;;;;;30.50;16.10;;;-4.70;85.00;;;;;;4962563;28;20200;-88
2022/12/18 00:57:23;;;;;;;29.73;14.23;;;-4.70;1.00;;;;;;4981980;28;20252;-87
2022/12/18 00:59:49;;;;;;;25.37;15.20;;;-4.70;1.00;;;;;;4961835;28;20196;-86
2022/12/18 01:02:14;;;;;;;31.40;16.00;;;-4.80;1.00;;;;;;4960077;28;20707;-87
2022/12/18 01:04:40;;;;;;;29.90;15.47;;;-4.80;1.00;;;;;;4962958;28;20195;-86
2022/12/18 01:07:05;;;;;;;27.53;15.23;;;-4.80;1.00;;;;;;4967190;28;20212;-87
2022/12/18 01:09:31;;;;;;;27.47;13.10;;;-4.80;1.00;;;;;;4979072;28;20653;-86
2022/12/18 01:11:59;;;;;;;27.93;14.07;;;-4.80;15.40;;;;;;4975960;28;20224;-86
2022/12/18 01:14:25;;;;;;;34.53;15.55;;;-4.80;1.00;;;;;;4982643;28;20188;-88
2022/12/18 01:16:50;;;;;;;23.20;12.23;;;-4.80;1.00;;;;;;4981032;28;20217;-87
2022/12/18 01:19:18;;;;;;;28.57;12.50;;;-4.80;70.90;;;;;;4981435;28;20192;-87
2022/12/18 01:21:44;;;;;;;27.98;12.80;;;-4.80;89.90;;;;;;4965403;28;20191;-87
2022/12/18 01:24:11;;;;;;;27.93;14.87;;;-4.80;37.00;;;;;;4979924;28;20811;-87
2022/12/18 01:26:39;;;;;;;25.33;14.70;;;-4.80;15.80;;;;;;4981792;28;20219;-87
2022/12/18 01:29:05;;;;;;;22.35;13.05;;;-4.80;2.30;;;;;;4959347;28;20195;-85
2022/12/18 01:31:33;;;;;;;27.40;13.53;;;-4.70;1.00;;;;;;4982770;28;20189;-87
2022/12/18 01:34:01;;;;;;;28.05;14.10;;;-4.70;1.00;;;;;;4983054;28;20235;-86
2022/12/18 01:36:29;;;;;;;27.50;13.65;;;-4.70;1.00;;;;;;4983897;28;20216;-87
2022/12/18 01:38:55;;;;;;;30.75;13.77;;;-4.70;1.00;;;;;;4983413;28;20204;-86
2022/12/18 01:41:24;;;;;;;30.95;15.02;;;-4.70;1.00;;;;;;4989362;28;20196;-88
2022/12/18 01:43:57;;;;;;;31.23;13.82;;;-4.70;8.00;;;;;;4966344;28;20177;-87
2022/12/18 01:46:24;;;;;;;28.77;13.88;;;-4.70;1.00;;;;;;4961500;28;20206;-88
2022/12/18 01:48:53;;;;;;;25.10;14.43;;;-4.70;1.00;;;;;;4985035;28;20187;-88
2022/12/18 01:51:19;;;;;;;28.60;14.00;;;-4.70;1.00;;;;;;4963929;28;20204;-85
2022/12/18 01:53:46;;;;;;;27.53;13.53;;;-4.80;1.00;;;;;;4977176;28;20180;-87
2022/12/18 01:56:20;;;;;;;25.58;12.35;;;-4.80;1.00;;;;;;4960600;28;20467;-86
2022/12/18 01:59:02;;;;;;;26.42;13.18;;;-4.70;1.00;;;;;;4974090;28;20181;-87
2022/12/18 02:01:29;;;;;;;23.20;13.55;;;-4.70;1.00;;;;;;4976445;28;20195;-86
2022/12/18 02:03:55;;;;;;;26.17;13.15;;;-4.70;99.90;;;;;;4974943;28;20252;-86
2022/12/18 02:06:34;;;;;;;25.70;14.00;;;-4.80;99.90;;;;;;4978725;28;20231;-87
2022/12/18 02:09:04;;;;;;;23.80;11.82;;;-4.80;99.90;;;;;;4980993;28;20251;-86
2022/12/18 02:11:49;;;;;;;21.23;12.00;;;-4.80;99.90;;;;;;4986591;28;20188;-87
2022/12/18 02:14:38;;;;;;;22.67;12.82;;;-4.80;99.90;;;;;;4986193;28;20199;-87
2022/12/18 02:17:09;;;;;;;25.55;12.48;;;-4.80;99.90;;;;;;4965618;28;20219;-86
2022/12/18 02:19:53;;;;;;;25.73;13.35;;;-4.80;99.90;;;;;;4969923;28;20184;-86
2022/12/18 02:22:56;;;;;;;24.95;12.93;;;-4.80;99.90;;;;;;4973709;28;20192;-85
2022/12/18 02:25:55;;;;;;;26.83;13.30;;;-4.80;99.90;;;;;;4973367;28;20255;-86
2022/12/18 02:28:29;;;;;;;27.98;15.68;;;-4.80;99.90;;;;;;4974371;28;20208;-86
2022/12/18 02:30:58;;;;;;;27.80;13.65;;;-4.90;99.90;;;;;;4975268;28;20196;-86
2022/12/18 02:33:26;;;;;;;25.83;12.95;;;-4.90;99.90;;;;;;4968201;28;20185;-86
2022/12/18 02:35:57;;;;;;;27.80;13.35;;;-4.90;99.90;;;;;;4956726;28;20216;-86
2022/12/18 02:38:24;;;;;;;25.63;13.48;;;-4.90;99.90;;;;;;4975171;28;20247;-87
2022/12/18 02:40:54;;;;;;;24.83;12.27;;;-4.90;99.90;;;;;;4985115;28;20292;-86
2022/12/18 02:43:19;;;;;;;30.73;15.20;;;-5.00;99.90;;;;;;4959691;28;20184;-86
2022/12/18 02:45:57;;;;;;;25.47;13.77;;;-5.00;1.00;;;;;;4953070;28;20676;-85
2022/12/18 02:48:28;;;;;;;29.48;16.52;;;-5.00;1.00;;;;;;4975180;28;20431;-86
2022/12/18 02:51:21;;;;;;;26.60;14.48;;;-5.00;20.10;;;;;;4975714;28;20184;-86
2022/12/18 02:53:55;;;;;;;31.55;15.50;;;-5.00;99.90;;;;;;4952869;28;20192;-85
2022/12/18 02:56:44;;;;;;;34.78;17.05;;;-5.00;99.90;;;;;;4953875;28;20774;-86
2022/12/18 02:59:15;;;;;;;26.38;15.00;;;-5.00;99.90;;;;;;4957309;28;20203;-86
2022/12/18 03:02:02;;;;;;;26.92;14.90;;;-5.00;99.90;;;;;;4967591;28;20184;-85
2022/12/18 03:05:02;;;;;;;36.50;19.25;;;-5.00;99.90;;;;;;4957372;28;20551;-86
2022/12/18 03:07:37;;;;;;;30.20;14.85;;;-5.00;99.90;;;;;;4971357;28;20216;-86
2022/12/18 03:10:06;;;;;;;30.25;19.55;;;-5.00;1.00;;;;;;4953091;28;20222;-87
2022/12/18 03:12:35;;;;;;;32.33;17.52;;;-5.00;1.00;;;;;;4956096;28;20184;-87
2022/12/18 03:15:30;;;;;;;31.35;16.70;;;-5.00;1.00;;;;;;4953313;28;20180;-88
2022/12/18 03:18:02;;;;;;;29.42;12.05;;;-5.00;1.00;;;;;;4960887;28;20204;-86
2022/12/18 03:20:36;;;;;;;25.35;14.43;;;-5.00;1.00;;;;;;4975281;28;20601;-86
2022/12/18 03:23:11;;;;;;;30.77;14.00;;;-5.00;1.00;;;;;;4968708;28;20267;-86
2022/12/18 03:25:46;;;;;;;36.40;17.52;;;-5.00;1.00;;;;;;4972302;28;20184;-86
2022/12/18 03:28:19;;;;;;;39.88;16.80;;;-5.00;99.90;;;;;;4977240;28;20946;-86
2022/12/18 03:30:47;;;;;;;29.50;14.77;;;-5.00;99.90;;;;;;4978887;28;20188;-87
2022/12/18 03:33:19;;;;;;;31.85;15.25;;;-5.00;99.90;;;;;;4963078;28;20654;-86
2022/12/18 03:35:46;;;;;;;31.50;15.82;;;-4.90;99.90;;;;;;4980415;28;20196;-86
2022/12/18 03:38:12;;;;;;;36.63;16.77;;;-4.90;99.90;;;;;;4962710;28;20220;-87
2022/12/18 03:40:43;;;;;;;30.50;17.00;;;-4.90;99.90;;;;;;4984704;28;20181;-87
2022/12/18 03:43:16;;;;;;;27.58;14.80;;;-4.90;99.90;;;;;;4976296;28;20192;-87
2022/12/18 03:45:53;;;;;;;35.08;18.50;;;-4.90;99.90;;;;;;4980022;28;20188;-86
2022/12/18 03:48:27;;;;;;;30.10;14.00;;;-4.90;99.90;;;;;;4957879;28;20211;-86
2022/12/18 03:51:16;;;;;;;34.45;18.42;;;-4.90;99.90;;;;;;4980011;28;20188;-86
2022/12/18 03:54:00;;;;;;;34.60;18.92;;;-4.90;99.90;;;;;;4955644;28;20278;-87
2022/12/18 03:56:29;;;;;;;31.75;14.40;;;-4.90;99.90;;;;;;4978649;28;20216;-86
2022/12/18 03:58:56;;;;;;;34.50;16.95;;;-4.90;99.90;;;;;;4961119;28;20604;-86
2022/12/18 04:01:29;;;;;;;32.83;15.52;;;-4.90;99.90;;;;;;4976230;28;20695;-88
2022/12/18 04:03:56;;;;;;;39.10;18.83;;;-4.90;99.90;;;;;;4976304;28;20671;-87
2022/12/18 04:06:22;;;;;;;31.15;16.38;;;-4.90;99.90;;;;;;4979176;28;20275;-88
2022/12/18 04:08:48;;;;;;;31.10;16.73;;;-4.90;99.90;;;;;;4974780;28;20300;-86
2022/12/18 04:11:15;;;;;;;30.07;15.13;;;-4.90;99.90;;;;;;4960020;28;20282;-86
2022/12/18 04:13:42;;;;;;;30.42;17.40;;;-4.90;99.90;;;;;;4981096;28;20485;-88
2022/12/18 04:16:09;;;;;;;34.05;15.30;;;-4.80;99.90;;;;;;4979553;28;20246;-86
2022/12/18 04:18:35;;;;;;;34.47;17.85;;;-4.80;99.90;;;;;;4977007;28;20199;-87
2022/12/18 04:21:01;;;;;;;32.47;17.33;;;-4.80;99.90;;;;;;4963873;28;20187;-87
2022/12/18 04:23:28;;;;;;;26.70;15.63;;;-4.80;99.90;;;;;;4963201;28;20188;-88
2022/12/18 04:25:53;;;;;;;30.60;15.98;;;-4.80;99.90;;;;;;4962397;28;20439;-87
2022/12/18 04:28:19;;;;;;;30.90;14.90;;;-4.80;99.90;;;;;;4979715;28;20214;-87
2022/12/18 04:30:47;;;;;;;33.03;18.10;;;-4.80;99.90;;;;;;4978852;28;20733;-86
2022/12/18 04:33:16;;;;;;;35.08;16.55;;;-4.80;99.90;;;;;;4981194;28;20436;-86
2022/12/18 04:35:41;;;;;;;32.55;16.25;;;-4.80;99.90;;;;;;4974478;28;20235;-87
2022/12/18 04:38:10;;;;;;;33.40;17.90;;;-4.80;99.90;;;;;;4962894;28;20220;-87
2022/12/18 04:40:37;;;;;;;37.90;17.70;;;-4.80;99.90;;;;;;4988310;28;20187;-88
2022/12/18 04:43:03;;;;;;;35.20;17.13;;;-4.80;99.90;;;;;;4963473;28;20184;-87
2022/12/18 04:45:33;;;;;;;34.28;17.67;;;-4.80;99.90;;;;;;4963434;28;20212;-88
2022/12/18 04:47:59;;;;;;;27.83;14.90;;;-4.80;99.90;;;;;;4963015;28;20204;-87
2022/12/18 04:50:29;;;;;;;40.45;16.67;;;-4.80;99.90;;;;;;4981339;28;20968;-87
2022/12/18 04:52:54;;;;;;;34.75;18.48;;;-4.80;99.90;;;;;;4955963;28;20311;-87
2022/12/18 04:55:20;;;;;;;30.10;17.93;;;-4.80;99.90;;;;;;4988782;28;20223;-86
2022/12/18 04:57:46;;;;;;;26.50;14.77;;;-4.80;99.90;;;;;;4980049;28;20906;-88
2022/12/18 05:00:12;;;;;;;27.80;13.37;;;-4.70;99.90;;;;;;4973264;28;20432;-88
2022/12/18 05:02:38;;;;;;;35.10;17.55;;;-4.70;99.90;;;;;;4975401;28;20667;-88
2022/12/18 05:05:04;;;;;;;30.03;15.97;;;-4.70;99.90;;;;;;4967053;28;20181;-87
2022/12/18 05:07:29;;;;;;;34.17;16.98;;;-4.70;92.90;;;;;;4981809;28;20212;-87
2022/12/18 05:09:55;;;;;;;31.73;16.73;;;-4.70;34.60;;;;;;4981429;28;20765;-87
2022/12/18 05:12:23;;;;;;;29.87;14.10;;;-4.70;40.10;;;;;;4981295;28;20207;-87
2022/12/18 05:14:49;;;;;;;34.15;15.00;;;-4.70;16.40;;;;;;4980839;28;20597;-89
2022/12/18 05:17:14;;;;;;;30.20;17.50;;;-4.70;1.00;;;;;;4961299;28;20227;-87
2022/12/18 05:19:43;;;;;;;29.77;15.70;;;-4.70;1.00;;;;;;4980962;28;20256;-87
2022/12/18 05:22:09;;;;;;;33.25;17.75;;;-4.70;1.00;;;;;;4981009;28;20196;-89
2022/12/18 05:24:35;;;;;;;32.97;16.90;;;-4.70;1.00;;;;;;4960900;28;20184;-87
2022/12/18 05:27:00;;;;;;;35.33;17.50;;;-4.80;1.00;;;;;;4976740;28;20582;-87
2022/12/18 05:29:26;;;;;;;41.77;14.80;;;-4.80;1.00;;;;;;4975286;28;20199;-88
2022/12/18 05:31:51;;;;;;;31.23;15.33;;;-4.80;1.00;;;;;;4961213;28;20691;-87
2022/12/18 05:34:19;;;;;;;24.07;14.60;;;-4.80;1.00;;;;;;4979276;28;20184;-86
2022/12/18 05:36:48;;;;;;;33.03;15.07;;;-4.80;1.00;;;;;;4963724;28;20216;-87
2022/12/18 05:39:13;;;;;;;31.98;15.48;;;-4.80;1.00;;;;;;4979370;28;20228;-87
2022/12/18 05:41:47;;;;;;;35.03;17.07;;;-4.80;1.00;;;;;;4963290;28;20212;-88
2022/12/18 05:44:13;;;;;;;33.38;15.23;;;-4.80;1.00;;;;;;4962705;28;20180;-87
2022/12/18 05:46:38;;;;;;;42.87;16.30;;;-4.80;1.00;;;;;;4972262;28;20727;-87
2022/12/18 05:49:04;;;;;;;38.07;16.03;;;-4.80;1.00;;;;;;4980964;28;20195;-87
2022/12/18 05:51:31;;;;;;;37.30;16.50;;;-4.80;1.00;;;;;;4965249;28;20189;-88
2022/12/18 05:53:56;;;;;;;33.97;16.95;;;-4.80;1.00;;;;;;4962264;28;20243;-87
2022/12/18 05:56:23;;;;;;;31.80;16.10;;;-4.80;1.00;;;;;;4980372;28;20215;-88
2022/12/18 05:58:52;;;;;;;31.02;15.40;;;-4.80;1.00;;;;;;4981769;28;20568;-86
2022/12/18 06:01:24;;;;;;;32.28;15.45;;;-4.80;1.00;;;;;;4985936;28;20262;-90
2022/12/18 06:03:50;;;;;;;33.90;18.60;;;-4.80;1.00;;;;;;4972044;28;20173;-86
2022/12/18 06:06:22;;;;;;;35.40;15.30;;;-4.80;1.00;;;;;;4973881;28;20279;-86
2022/12/18 06:08:47;;;;;;;38.40;18.65;;;-4.80;1.00;;;;;;4972515;28;20199;-87
2022/12/18 06:11:15;;;;;;;27.27;15.67;;;-4.80;1.00;;;;;;4975814;28;20570;-87
2022/12/18 06:13:44;;;;;;;29.20;15.52;;;-4.80;1.00;;;;;;4954038;28;20207;-86
2022/12/18 06:16:10;;;;;;;28.45;14.57;;;-4.80;1.00;;;;;;4975572;28;20204;-87
2022/12/18 06:18:35;;;;;;;33.83;16.00;;;-4.80;1.00;;;;;;4975057;28;20200;-86
2022/12/18 06:21:01;;;;;;;33.43;17.37;;;-4.80;1.00;;;;;;4974896;28;20223;-88
2022/12/18 06:23:30;;;;;;;31.60;16.90;;;-4.80;94.80;;;;;;4972773;28;20188;-86
2022/12/18 06:25:55;;;;;;;25.58;15.32;;;-4.80;92.30;;;;;;4953731;28;20436;-87
2022/12/18 06:28:21;;;;;;;30.33;15.00;;;-4.80;99.90;;;;;;4973826;28;20266;-86
2022/12/18 06:30:48;;;;;;;35.97;18.97;;;-4.80;99.90;;;;;;4955501;28;20202;-86
2022/12/18 06:33:15;;;;;;;31.75;16.70;;;-4.80;99.90;;;;;;4965666;28;20185;-87
2022/12/18 06:35:41;;;;;;;35.47;18.98;;;-4.80;99.90;;;;;;4949867;28;20219;-86
2022/12/18 06:38:07;;;;;;;34.67;17.40;;;-4.80;99.90;;;;;;4974173;28;20216;-86
2022/12/18 06:40:33;;;;;;;36.27;18.00;;;-4.80;99.90;;;;;;4970582;28;20204;-88
2022/12/18 06:42:58;;;;;;;26.93;14.20;;;-4.80;99.90;;;;;;4958189;28;20423;-87
2022/12/18 06:45:24;;;;;;;29.40;15.53;;;-4.80;99.90;;;;;;4974578;28;20447;-86
2022/12/18 06:47:50;;;;;;;31.90;15.30;;;-4.70;99.90;;;;;;4952778;28;20204;-87
2022/12/18 06:50:16;;;;;;;33.83;18.77;;;-4.70;99.90;;;;;;4957996;28;20239;-87
2022/12/18 06:52:44;;;;;;;33.90;20.40;;;-4.70;99.90;;;;;;4957602;28;20471;-88
2022/12/18 06:55:10;;;;;;;34.45;17.23;;;-4.70;99.90;;;;;;4974405;28;20444;-88
2022/12/18 06:57:37;;;;;;;43.83;17.27;;;-4.70;99.90;;;;;;4949769;28;20212;-86
2022/12/18 07:00:06;;;;;;;31.10;17.70;;;-4.60;99.90;;;;;;4973466;28;20219;-87
2022/12/18 07:02:32;;;;;;;30.48;14.75;;;-4.60;99.90;;;;;;4972196;28;20682;-86
2022/12/18 07:04:58;;;;;;;35.38;19.58;;;-4.60;99.90;;;;;;4957785;28;20561;-86
2022/12/18 07:07:24;;;;;;;34.23;18.80;;;-4.60;99.90;;;;;;4958531;28;20221;-86
2022/12/18 07:09:50;;;;;;;37.80;18.45;;;-4.60;95.10;;;;;;4975207;28;20872;-86
2022/12/18 07:12:19;;;;;;;36.95;17.20;;;-4.50;53.20;;;;;;4970646;28;20573;-86
2022/12/18 07:14:44;;;;;;;34.72;17.10;;;-4.50;1.00;;;;;;4974548;28;20184;-86
2022/12/18 07:17:10;;;;;;;33.10;17.30;;;-4.50;1.00;;;;;;4964327;28;20223;-86
2022/12/18 07:19:36;;;;;;;37.90;19.97;;;-4.50;1.00;;;;;;4956507;28;20192;-87
2022/12/18 07:22:01;;;;;;;44.47;18.83;;;-4.50;1.00;;;;;;4975503;28;20219;-88
2022/12/18 07:24:27;;;;;;;36.00;19.10;;;-4.40;1.00;;;;;;4956177;28;20199;-85
2022/12/18 07:27:00;;;;;;;34.93;20.70;;;-4.40;1.00;;;;;;4974275;28;20271;-87
2022/12/18 07:29:39;;;;;;;32.83;20.35;;;-4.40;1.00;;;;;;4970908;28;20446;-87
2022/12/18 07:32:06;;;;;;;32.88;18.08;;;-4.20;1.00;;;;;;4973154;28;20184;-88
2022/12/18 07:34:38;;;;;;;24.80;15.20;;;-4.10;99.90;;;;;;4967580;28;20194;-88
2022/12/18 07:37:04;;;;;;;30.75;16.20;;;-4.10;1.00;;;;;;4967099;28;20223;-85
2022/12/18 07:39:30;;;;;;;31.87;13.57;;;-4.00;99.90;;;;;;4955655;28;20588;-87
2022/12/18 07:44:40;;;;;;;22.17;12.50;;;-3.90;1.00;;;;;;4966221;28;20200;-87
2022/12/18 07:47:08;;;;;;;34.13;16.33;;;-3.90;99.90;;;;;;4972605;28;20209;-87
2022/12/18 07:49:34;;;;;;;32.50;16.33;;;-3.90;16.80;;;;;;4970197;28;20184;-87
2022/12/18 07:52:02;;;;;;;35.70;17.67;;;-3.80;1.00;;;;;;4971726;28;20242;-87
2022/12/18 07:54:28;;;;;;;33.40;19.13;;;-3.80;99.90;;;;;;4970789;28;20188;-87
2022/12/18 07:56:57;;;;;;;33.97;16.00;;;-3.70;99.90;;;;;;4956065;28;20212;-87
2022/12/18 07:59:26;;;;;;;33.92;16.33;;;-3.60;99.90;;;;;;4952722;28;20188;-87
2022/12/18 08:01:51;;;;;;;34.25;18.80;;;-3.60;1.00;;;;;;4971253;28;20176;-87
2022/12/18 08:04:17;;;;;;;34.73;17.43;;;-3.50;1.00;;;;;;4948129;28;20200;-86
2022/12/18 08:06:43;;;;;;;31.00;16.67;;;-3.40;99.90;;;;;;4973673;28;20418;-87
2022/12/18 08:09:15;;;;;;;30.33;16.80;;;-3.40;99.90;;;;;;4945320;28;20200;-87
2022/12/18 08:11:41;;;;;;;30.08;15.95;;;-3.30;99.90;;;;;;4963574;28;20212;-86
2022/12/18 08:14:06;;;;;;;42.23;18.90;;;-3.20;56.30;;;;;;4976157;28;20226;-87
2022/12/18 08:16:32;;;;;;;31.43;18.70;;;-3.00;1.00;;;;;;4953307;28;20216;-88
2022/12/18 08:18:58;;;;;;;31.37;15.60;;;-2.90;99.90;;;;;;4958082;28;20185;-87
2022/12/18 08:21:26;;;;;;;41.40;20.20;;;-2.70;99.90;;;;;;4956634;28;20193;-87
2022/12/18 08:24:01;;;;;;;29.85;17.05;;;-2.60;99.90;;;;;;4956955;28;20191;-87
2022/12/18 08:26:29;;;;;;;34.47;18.27;;;-2.20;1.00;;;;;;4958232;28;20207;-87
2022/12/18 08:29:01;;;;;;;28.88;14.95;;;-1.60;1.00;;;;;;4976933;28;20204;-87
2022/12/18 08:31:31;;;;;;;34.13;17.70;;;-1.20;99.90;;;;;;4978028;28;20585;-87
2022/12/18 08:33:57;;;;;;;31.10;15.75;;;-1.00;1.00;;;;;;4958061;28;20271;-88
2022/12/18 08:36:23;;;;;;;29.35;16.83;;;-1.00;1.00;;;;;;4946432;28;20221;-89
2022/12/18 08:38:49;;;;;;;26.02;14.75;;;-1.00;1.00;;;;;;4958736;28;20224;-88
2022/12/18 08:41:17;;;;;;;33.33;16.03;;;-1.00;1.00;;;;;;4959550;28;20212;-87
2022/12/18 08:46:41;;;;;;;24.40;14.30;;;-0.80;1.00;;;;;;4975195;28;20215;-87
2022/12/18 08:49:08;;;;;;;32.05;16.80;;;-0.70;1.00;;;;;;4959691;28;20192;-88
2022/12/18 08:51:34;;;;;;;26.73;17.08;;;-0.60;1.00;;;;;;4975178;28;20623;-88
2022/12/18 08:54:00;;;;;;;27.50;15.85;;;-0.50;1.00;;;;;;4965275;28;20192;-88
2022/12/18 08:56:25;;;;;;;31.35;16.90;;;-0.30;1.00;;;;;;4981289;28;20215;-89
2022/12/18 08:58:53;;;;;;;32.33;17.13;;;-0.20;1.00;;;;;;4999012;28;20190;-88
2022/12/18 09:01:19;;;;;;;27.65;16.42;;;-0.20;1.00;;;;;;4978982;28;20191;-88
2022/12/18 09:03:49;;;;;;;26.10;15.60;;;0.00;1.00;;;;;;4996311;28;20179;-88
2022/12/18 09:06:16;;;;;;;24.80;16.30;;;0.00;1.00;;;;;;4958504;28;20294;-88
2022/12/18 09:08:46;;;;;;;29.77;17.20;;;0.00;1.00;;;;;;4973673;28;20188;-88
2022/12/18 09:11:15;;;;;;;32.42;17.45;;;0.00;1.00;;;;;;4951323;28;20189;-87
2022/12/18 09:13:40;;;;;;;27.40;17.58;;;0.00;1.00;;;;;;4971550;28;20220;-88
2022/12/18 09:16:06;;;;;;;29.53;14.87;;;0.10;99.90;;;;;;4953325;28;20284;-88
2022/12/18 09:18:37;;;;;;;31.63;18.37;;;0.20;1.00;;;;;;4965373;28;20235;-87
2022/12/18 09:21:15;;;;;;;29.65;18.08;;;0.30;99.90;;;;;;4973241;28;20494;-87
2022/12/18 09:23:41;;;;;;;32.58;17.42;;;0.40;99.90;;;;;;4955068;28;20266;-87
2022/12/18 09:26:07;;;;;;;30.00;19.63;;;0.40;99.90;;;;;;4953435;28;20703;-88
2022/12/18 09:28:33;;;;;;;23.03;15.03;;;0.50;99.90;;;;;;4956965;28;20184;-88
2022/12/18 09:30:58;;;;;;;25.40;14.88;;;0.60;99.90;;;;;;4964762;28;20206;-88
2022/12/18 09:33:24;;;;;;;21.97;15.80;;;0.70;99.90;;;;;;4969129;28;20647;-87
2022/12/18 09:36:00;;;;;;;26.67;13.83;;;0.80;99.90;;;;;;4969292;28;20215;-87
2022/12/18 09:38:28;;;;;;;28.13;16.35;;;0.90;99.90;;;;;;4971258;28;20308;-87
2022/12/18 09:41:02;;;;;;;30.08;14.98;;;1.00;99.90;;;;;;4981585;28;20190;-88
2022/12/18 09:43:41;;;;;;;31.50;18.50;;;1.00;99.90;;;;;;4970378;28;20190;-88
2022/12/18 09:46:13;;;;;;;26.05;15.05;;;1.10;99.90;;;;;;4948954;28;20184;-87
2022/12/18 09:48:44;;;;;;;23.77;14.32;;;1.10;99.90;;;;;;4979931;28;20176;-88
2022/12/18 09:51:32;;;;;;;26.63;16.92;;;1.20;99.90;;;;;;4967326;28;20200;-87
2022/12/18 09:54:14;;;;;;;34.30;16.60;;;1.30;99.90;;;;;;4967092;28;20192;-87
2022/12/18 09:56:43;;;;;;;28.40;15.85;;;1.30;99.90;;;;;;4972490;28;20646;-89
2022/12/18 09:59:35;;;;;;;25.13;14.80;;;1.30;99.90;;;;;;4970086;28;20223;-87
2022/12/18 10:02:18;;;;;;;22.58;14.73;;;1.30;99.90;;;;;;4971033;28;20196;-87
2022/12/18 10:04:48;;;;;;;31.75;16.50;;;1.40;99.90;;;;;;4969777;28;20235;-87
2022/12/18 10:07:29;;;;;;;25.33;15.32;;;1.50;99.90;;;;;;4954676;28;20263;-88
2022/12/18 10:10:10;;;;;;;30.85;18.80;;;1.50;99.90;;;;;;4955185;28;20594;-88
2022/12/18 10:12:54;;;;;;;20.77;12.68;;;1.50;99.90;;;;;;4972088;28;20263;-87
2022/12/18 10:15:39;;;;;;;27.45;16.17;;;1.60;99.90;;;;;;4952727;28;20188;-87
2022/12/18 10:18:37;;;;;;;25.00;14.82;;;1.70;99.90;;;;;;4971299;28;20231;-88
2022/12/18 10:21:31;;;;;;;32.45;20.90;;;1.80;99.90;;;;;;4970946;28;20195;-88
2022/12/18 10:24:31;;;;;;;26.88;17.42;;;1.90;99.90;;;;;;4949668;28;20227;-88
2022/12/18 10:27:22;;;;;;;22.80;13.68;;;2.00;99.90;;;;;;4968050;28;20579;-87
2022/12/18 10:29:48;;;;;;;46.15;25.90;;;2.10;99.90;;;;;;4954809;28;20184;-88
2022/12/18 10:32:23;;;;;;;26.37;15.17;;;2.20;99.90;;;;;;4955758;28;20671;-87
2022/12/18 10:34:50;;;;;;;33.88;16.38;;;2.10;99.90;;;;;;4945574;28;20497;-87
2022/12/18 10:37:19;;;;;;;24.55;15.32;;;2.10;99.90;;;;;;4971445;28;20220;-87
2022/12/18 10:39:46;;;;;;;28.63;19.23;;;2.10;99.90;;;;;;4974365;28;20227;-87
2022/12/18 10:42:17;;;;;;;29.75;16.05;;;2.00;99.90;;;;;;4956789;28;20191;-88
2022/12/18 10:44:42;;;;;;;29.55;16.77;;;2.00;99.90;;;;;;4950737;28;20180;-88
2022/12/18 10:47:15;;;;;;;26.03;16.23;;;2.00;99.90;;;;;;4971791;28;20216;-88
2022/12/18 10:49:49;;;;;;;27.13;17.30;;;2.00;99.90;;;;;;4970574;28;20572;-87
2022/12/18 10:52:18;;;;;;;40.33;22.42;;;1.90;99.90;;;;;;4971466;28;20191;-88
2022/12/18 10:55:01;;;;;;;28.98;17.35;;;1.90;99.90;;;;;;4973329;28;20181;-88
2022/12/18 10:57:41;;;;;;;28.15;17.08;;;1.90;99.90;;;;;;4955393;28;20224;-88
2022/12/18 11:00:28;;;;;;;30.48;19.00;;;1.90;99.90;;;;;;4958274;28;20180;-88
2022/12/18 11:02:59;;;;;;;24.25;16.67;;;2.00;99.90;;;;;;4971117;28;20185;-88
2022/12/18 11:05:28;;;;;;;28.67;16.77;;;2.00;99.90;;;;;;4971511;28;20177;-87
2022/12/18 11:07:56;;;;;;;27.17;15.68;;;2.00;99.90;;;;;;4958289;28;20231;-88
2022/12/18 11:10:33;;;;;;;22.33;13.88;;;2.00;99.90;;;;;;4959253;28;20214;-87
2022/12/18 11:13:20;;;;;;;25.23;15.05;;;2.00;99.90;;;;;;4980395;28;20183;-88
2022/12/18 11:15:46;;;;;;;23.80;13.88;;;2.10;99.90;;;;;;4954271;28;20211;-87
2022/12/18 11:18:18;;;;;;;25.90;15.87;;;2.10;99.90;;;;;;4991468;28;20713;-88
2022/12/18 11:20:53;;;;;;;24.38;15.77;;;2.10;99.90;;;;;;4970844;28;20438;-88
2022/12/18 11:23:22;;;;;;;28.70;15.40;;;2.10;99.90;;;;;;4954882;28;20184;-88
2022/12/18 11:25:59;;;;;;;53.22;30.25;;;2.20;99.90;;;;;;4954804;28;20195;-88
2022/12/18 11:28:26;;;;;;;28.98;18.95;;;2.20;99.90;;;;;;4972504;28;20210;-87
2022/12/18 11:31:15;;;;;;;28.02;16.98;;;2.20;99.90;;;;;;4948201;28;20180;-88
2022/12/18 11:34:20;;;;;;;22.13;17.55;;;2.20;99.90;;;;;;4957453;28;20308;-88
2022/12/18 11:36:47;;;;;;;26.42;15.73;;;2.00;99.90;;;;;;4958499;28;20254;-88
2022/12/18 11:39:24;;;;;;;25.35;14.85;;;2.00;99.90;;;;;;4971413;28;21218;-88
2022/12/18 11:42:09;;;;;;;26.05;17.83;;;1.90;99.90;;;;;;4955703;28;20180;-88
2022/12/18 11:45:06;;;;;;;30.77;17.35;;;1.80;99.90;;;;;;4951967;28;20442;-88
2022/12/18 11:47:54;;;;;;;23.45;17.70;;;1.70;99.90;;;;;;4978779;28;20207;-87
2022/12/18 11:50:30;;;;;;;29.48;18.45;;;1.70;99.90;;;;;;4975373;28;20188;-88
2022/12/18 11:52:55;;;;;;;28.42;17.02;;;1.70;99.90;;;;;;4979679;28;20187;-89
2022/12/18 11:55:44;;;;;;;29.87;16.13;;;1.70;99.90;;;;;;4972166;28;20570;-89
2022/12/18 11:58:15;;;;;;;27.45;15.55;;;1.80;99.90;;;;;;4954709;28;20578;-89
2022/12/18 12:01:08;;;;;;;26.90;19.00;;;1.80;99.90;;;;;;4956382;28;20611;-88
2022/12/18 12:04:04;;;;;;;29.25;21.30;;;1.70;99.90;;;;;;4959446;28;20308;-89
2022/12/18 12:06:43;;;;;;;30.98;19.38;;;1.70;99.90;;;;;;4978911;28;20291;-88
2022/12/18 12:09:21;;;;;;;28.00;13.75;;;1.60;99.90;;;;;;4960194;28;20267;-87
2022/12/18 12:12:19;;;;;;;27.85;14.52;;;1.60;99.90;;;;;;4963840;28;20193;-88
2022/12/18 12:15:17;;;;;;;29.60;20.30;;;1.60;99.90;;;;;;4940104;28;20199;-88
2022/12/18 12:18:09;;;;;;;33.13;24.23;;;1.50;99.90;;;;;;4949794;28;20234;-88
2022/12/18 12:20:52;;;;;;;29.25;17.15;;;1.50;99.90;;;;;;4964573;28;20235;-88
2022/12/18 12:23:43;;;;;;;27.20;15.30;;;1.40;99.90;;;;;;4956497;28;20205;-88
2022/12/18 12:26:16;;;;;;;29.30;16.05;;;1.40;99.90;;;;;;4957295;28;20595;-89
2022/12/18 12:28:56;;;;;;;30.70;17.27;;;1.40;99.90;;;;;;4967955;28;20169;-88
2022/12/18 12:31:58;;;;;;;27.70;18.55;;;1.40;99.90;;;;;;4980606;28;20196;-89
2022/12/18 12:34:31;;;;;;;27.35;16.95;;;1.40;99.90;;;;;;4972810;28;20199;-88
2022/12/18 12:37:16;;;;;;;33.55;19.45;;;1.40;99.90;;;;;;4966601;28;20215;-89
2022/12/18 12:39:45;;;;;;;30.35;15.80;;;1.40;99.90;;;;;;4973401;28;20203;-89
2022/12/18 12:45:22;;;;;;;31.55;17.05;;;1.60;99.90;;;;;;4970816;28;20750;-89
2022/12/18 12:47:49;;;;;;;23.67;14.85;;;1.70;99.90;;;;;;4974177;28;20208;-87
2022/12/18 12:50:19;;;;;;;31.13;15.18;;;1.70;99.90;;;;;;4965437;28;20184;-88
2022/12/18 12:52:53;;;;;;;25.35;18.73;;;1.70;99.90;;;;;;4954090;28;20588;-91
2022/12/18 12:55:29;;;;;;;27.38;17.48;;;1.60;99.90;;;;;;4954224;28;20215;-88
2022/12/18 12:58:02;;;;;;;28.15;16.60;;;1.70;99.90;;;;;;4972573;28;20200;-89
2022/12/18 13:00:36;;;;;;;31.23;16.73;;;1.60;99.90;;;;;;4974430;28;20559;-88
2022/12/18 13:03:30;;;;;;;29.00;18.23;;;1.60;99.90;;;;;;4970805;28;20200;-89
2022/12/18 13:06:08;;;;;;;31.27;18.30;;;1.60;99.90;;;;;;4973504;28;20552;-88